createdAt,value
2023-04-12T00:01:12.878Z,11.55
2023-04-12T00:03:40.492Z,7.50
2023-04-12T00:06:10.458Z,5.88
2023-04-12T00:08:37.882Z,3.80
2023-04-12T00:11:05.330Z,8.13
2023-04-12T00:13:32.697Z,6.60
2023-04-12T00:16:00.338Z,5.07
2023-04-12T00:18:27.585Z,5.55
2023-04-12T00:20:56.227Z,7.03
2023-04-12T00:23:23.368Z,4.55
2023-04-12T00:25:50.862Z,4.25
2023-04-12T00:28:18.016Z,4.80
2023-04-12T00:30:46.000Z,4.45
2023-04-12T00:33:13.061Z,5.28
2023-04-12T00:35:40.104Z,6.22
2023-04-12T00:38:10.586Z,3.25
2023-04-12T00:40:42.783Z,4.53
2023-04-12T00:43:15.270Z,6.43
2023-04-12T00:45:42.578Z,8.13
2023-04-12T00:48:10.585Z,11.32
2023-04-12T00:50:37.649Z,4.80
2023-04-12T00:53:04.661Z,11.50
2023-04-12T00:55:32.137Z,5.35
2023-04-12T00:57:59.423Z,7.55
2023-04-12T01:00:26.481Z,4.15
2023-04-12T01:02:54.330Z,6.18
2023-04-12T01:05:23.550Z,6.63
2023-04-12T01:08:25.082Z,11.68
2023-04-12T01:11:06.318Z,8.23
2023-04-12T01:13:52.908Z,4.45
2023-04-12T01:16:40.843Z,7.13
2023-04-12T01:19:54.164Z,4.25
2023-04-12T01:23:14.854Z,4.30
2023-04-12T01:26:15.867Z,5.13
2023-04-12T01:28:44.772Z,6.43
2023-04-12T01:31:14.422Z,2.05
2023-04-12T01:33:45.723Z,5.85
2023-04-12T01:36:23.286Z,5.80
2023-04-12T01:38:50.916Z,4.07
2023-04-12T01:41:18.996Z,5.30
2023-04-12T01:43:47.970Z,7.65
2023-04-12T01:46:19.539Z,4.20
2023-04-12T01:48:52.209Z,6.60
2023-04-12T01:51:45.090Z,4.95
2023-04-12T01:54:23.384Z,7.50
2023-04-12T01:56:58.633Z,7.40
2023-04-12T01:59:37.000Z,6.07
2023-04-12T02:02:04.225Z,8.13
2023-04-12T02:04:34.495Z,4.22
2023-04-12T02:07:02.570Z,6.85
2023-04-12T02:09:29.790Z,4.15
2023-04-12T02:11:56.844Z,3.95
2023-04-12T02:14:23.779Z,8.25
2023-04-12T02:16:50.982Z,5.60
2023-04-12T02:19:19.378Z,3.75
2023-04-12T02:21:46.705Z,9.25
2023-04-12T02:24:13.683Z,5.25
2023-04-12T02:26:40.655Z,9.60
2023-04-12T02:29:10.621Z,6.65
2023-04-12T02:31:39.206Z,4.55
2023-04-12T02:34:09.365Z,10.20
2023-04-12T02:36:38.868Z,3.47
2023-04-12T02:39:06.556Z,10.55
2023-04-12T02:41:35.204Z,6.22
2023-04-12T02:44:03.593Z,6.40
2023-04-12T02:46:30.908Z,5.65
2023-04-12T02:48:59.404Z,6.65
2023-04-12T02:51:38.421Z,6.38
2023-04-12T02:54:05.971Z,4.03
2023-04-12T02:56:47.760Z,6.13
2023-04-12T02:59:41.395Z,8.10
2023-04-12T03:02:23.356Z,5.95
2023-04-12T03:04:53.322Z,4.53
2023-04-12T03:07:24.142Z,2.67
2023-04-12T03:09:53.524Z,7.05
2023-04-12T03:12:23.062Z,3.15
2023-04-12T03:15:01.120Z,9.02
2023-04-12T03:17:28.608Z,5.88
2023-04-12T03:19:58.181Z,4.60
2023-04-12T03:22:27.596Z,7.03
2023-04-12T03:24:58.859Z,2.50
2023-04-12T03:27:26.125Z,5.95
2023-04-12T03:29:53.950Z,3.85
2023-04-12T03:32:24.324Z,3.25
2023-04-12T03:34:51.444Z,4.97
2023-04-12T03:37:24.729Z,5.90
2023-04-12T03:39:53.151Z,7.82
2023-04-12T03:42:33.191Z,3.17
2023-04-12T03:45:12.226Z,6.70
2023-04-12T03:47:42.558Z,3.67
2023-04-12T03:50:12.365Z,3.83
2023-04-12T03:52:44.722Z,4.32
2023-04-12T03:55:13.609Z,7.40
2023-04-12T03:57:42.537Z,9.68
2023-04-12T04:00:10.526Z,5.22
2023-04-12T04:03:03.854Z,5.20
2023-04-12T04:05:36.012Z,10.05
2023-04-12T04:08:06.876Z,4.30
2023-04-12T04:10:44.375Z,2.15
2023-04-12T04:13:11.566Z,8.80
2023-04-12T04:15:38.822Z,5.25
2023-04-12T04:18:05.829Z,6.97
2023-04-12T04:20:32.935Z,9.60
2023-04-12T04:23:00.122Z,4.82
2023-04-12T04:25:30.025Z,6.75
2023-04-12T04:28:02.764Z,1.90
2023-04-12T04:30:34.117Z,5.72
2023-04-12T04:33:02.344Z,4.50
2023-04-12T04:35:31.507Z,4.00
2023-04-12T04:38:20.285Z,5.93
2023-04-12T04:40:53.588Z,4.50
2023-04-12T04:43:25.437Z,4.63
2023-04-12T04:46:02.425Z,4.75
2023-04-12T04:48:30.098Z,3.55
2023-04-12T04:50:57.450Z,4.00
2023-04-12T04:53:24.955Z,6.85
2023-04-12T04:55:59.528Z,5.15
2023-04-12T04:58:31.508Z,7.43
2023-04-12T05:01:00.146Z,5.75
2023-04-12T05:03:31.036Z,3.90
2023-04-12T05:06:02.040Z,4.75
2023-04-12T05:08:30.802Z,3.38
2023-04-12T05:10:59.229Z,6.82
2023-04-12T05:13:29.482Z,3.60
2023-04-12T05:15:57.277Z,6.03
2023-04-12T05:18:24.462Z,5.63
2023-04-12T05:20:52.509Z,6.75
2023-04-12T05:23:19.895Z,7.63
2023-04-12T05:25:48.436Z,3.08
2023-04-12T05:28:17.625Z,2.38
2023-04-12T05:30:45.586Z,3.22
2023-04-12T05:33:16.954Z,7.65
2023-04-12T05:35:46.917Z,5.35
2023-04-12T05:38:14.369Z,4.65
2023-04-12T05:40:44.324Z,6.63
2023-04-12T05:43:14.749Z,4.70
2023-04-12T05:45:42.335Z,5.00
2023-04-12T05:48:10.702Z,4.70
2023-04-12T05:50:38.297Z,4.40
2023-04-12T05:53:06.103Z,4.90
2023-04-12T05:55:37.253Z,5.57
2023-04-12T05:58:06.803Z,3.72
2023-04-12T06:00:34.440Z,3.83
2023-04-12T06:03:02.322Z,7.57
2023-04-12T06:05:29.854Z,4.15
2023-04-12T06:08:00.032Z,3.50
2023-04-12T06:10:27.380Z,3.30
2023-04-12T06:12:54.685Z,4.25
2023-04-12T06:15:22.386Z,5.57
2023-04-12T06:17:54.980Z,5.45
2023-04-12T06:20:22.349Z,5.88
2023-04-12T06:22:50.293Z,3.63
2023-04-12T06:25:18.321Z,7.68
2023-04-12T06:27:47.658Z,3.40
2023-04-12T06:30:17.512Z,4.13
2023-04-12T06:32:44.961Z,3.80
2023-04-12T06:35:12.382Z,7.57
2023-04-12T06:37:39.925Z,3.42
2023-04-12T06:40:08.683Z,5.28
2023-04-12T06:42:36.684Z,4.10
2023-04-12T06:45:04.730Z,2.65
2023-04-12T06:47:33.139Z,3.10
2023-04-12T06:50:00.288Z,3.55
2023-04-12T06:52:28.177Z,3.72
2023-04-12T06:54:57.081Z,4.40
2023-04-12T06:57:24.833Z,3.20
2023-04-12T06:59:52.309Z,1.88
2023-04-12T07:02:19.752Z,2.85
2023-04-12T07:04:47.488Z,3.75
2023-04-12T07:07:14.923Z,3.00
2023-04-12T07:09:43.350Z,3.67
2023-04-12T07:12:10.773Z,3.28
2023-04-12T07:14:38.096Z,3.72
2023-04-12T07:17:05.972Z,3.63
2023-04-12T07:19:33.330Z,6.47
2023-04-12T07:22:01.077Z,5.55
2023-04-12T07:24:28.293Z,5.75
2023-04-12T07:26:56.265Z,3.35
2023-04-12T07:29:23.944Z,2.58
2023-04-12T07:31:51.259Z,2.65
2023-04-12T07:34:18.626Z,4.72
2023-04-12T07:36:48.764Z,1.98
2023-04-12T07:39:16.433Z,2.42
2023-04-12T07:41:46.562Z,2.67
2023-04-12T07:44:14.029Z,2.50
2023-04-12T07:46:42.101Z,3.47
2023-04-12T07:49:10.764Z,3.40
2023-04-12T07:51:38.671Z,1.70
2023-04-12T07:54:05.964Z,3.15
2023-04-12T07:56:35.509Z,2.65
2023-04-12T07:59:02.996Z,3.75
2023-04-12T08:01:30.535Z,1.52
2023-04-12T08:03:58.509Z,2.35
2023-04-12T08:06:30.481Z,2.88
2023-04-12T08:08:58.536Z,4.15
2023-04-12T08:11:26.280Z,2.20
2023-04-12T08:13:53.658Z,6.50
2023-04-12T08:16:21.217Z,4.10
2023-04-12T08:18:48.671Z,4.53
2023-04-12T08:21:15.978Z,3.97
2023-04-12T08:23:43.397Z,3.40
2023-04-12T08:26:10.843Z,5.10
2023-04-12T08:28:39.838Z,4.55
2023-04-12T08:31:08.671Z,4.35
2023-04-12T08:33:36.385Z,4.85
2023-04-12T08:36:04.170Z,6.70
2023-04-12T08:38:44.993Z,6.80
2023-04-12T08:41:14.578Z,7.55
2023-04-12T08:43:48.879Z,7.72
2023-04-12T08:46:17.423Z,4.13
2023-04-12T08:48:47.478Z,6.63
2023-04-12T08:51:18.044Z,4.63
2023-04-12T08:53:45.665Z,4.40
2023-04-12T08:56:14.669Z,6.10
2023-04-12T08:58:48.998Z,6.47
2023-04-12T09:01:20.017Z,5.25
2023-04-12T09:03:47.698Z,6.90
2023-04-12T09:06:15.769Z,6.57
2023-04-12T09:08:56.691Z,5.60
2023-04-12T09:11:27.517Z,15.82
2023-04-12T09:13:57.215Z,11.82
2023-04-12T09:16:42.207Z,8.60
2023-04-12T09:19:10.113Z,8.27
2023-04-12T09:21:52.746Z,5.13
2023-04-12T09:24:24.174Z,10.13
2023-04-12T09:27:09.846Z,5.38
2023-04-12T09:29:37.697Z,8.30
2023-04-12T09:32:08.226Z,4.07
2023-04-12T09:34:37.028Z,6.05
2023-04-12T09:37:16.363Z,8.80
2023-04-12T09:39:44.119Z,15.73
2023-04-12T09:42:32.300Z,9.80
2023-04-12T09:45:26.039Z,10.05
2023-04-12T09:47:55.666Z,8.93
2023-04-12T09:50:33.462Z,9.88
2023-04-12T09:53:03.848Z,7.93
2023-04-12T09:55:32.697Z,10.27
2023-04-12T09:58:05.045Z,7.03
2023-04-12T10:00:35.440Z,15.05
2023-04-12T10:03:03.627Z,8.73
2023-04-12T10:05:31.348Z,11.20
2023-04-12T10:08:01.834Z,13.55
2023-04-12T10:10:31.674Z,11.88
2023-04-12T10:12:59.851Z,11.13
2023-04-12T10:15:30.964Z,11.05
2023-04-12T10:18:03.635Z,12.88
2023-04-12T10:20:31.299Z,11.88
2023-04-12T10:23:01.483Z,24.98
2023-04-12T10:25:31.844Z,9.73
2023-04-12T10:28:21.959Z,9.25
2023-04-12T10:30:52.140Z,7.88
2023-04-12T10:33:30.935Z,8.07
2023-04-12T10:36:07.030Z,13.65
2023-04-12T10:38:47.103Z,11.23
2023-04-12T10:41:21.452Z,7.82
2023-04-12T10:43:50.762Z,17.48
2023-04-12T10:46:45.547Z,12.18
2023-04-12T10:49:17.473Z,13.55
2023-04-12T10:52:01.871Z,10.77
2023-04-12T10:57:07.267Z,13.15
2023-04-12T10:59:57.143Z,10.13
2023-04-12T11:02:24.633Z,17.90
2023-04-12T11:05:11.507Z,7.22
2023-04-12T11:08:12.625Z,7.28
2023-04-12T11:10:39.952Z,12.82
2023-04-12T11:13:09.995Z,9.77
2023-04-12T11:15:40.798Z,9.70
2023-04-12T11:18:14.265Z,4.95
2023-04-12T11:20:41.832Z,10.48
2023-04-12T11:23:11.285Z,11.55
2023-04-12T11:25:38.971Z,11.95
2023-04-12T11:28:21.194Z,10.00
2023-04-12T11:30:56.046Z,6.20
2023-04-12T11:33:40.192Z,9.27
2023-04-12T11:36:13.104Z,8.88
2023-04-12T11:38:41.432Z,13.73
2023-04-12T11:41:09.833Z,7.18
2023-04-12T11:43:38.974Z,12.40
2023-04-12T11:46:06.765Z,11.27
2023-04-12T11:48:35.172Z,11.25
2023-04-12T11:51:25.399Z,6.72
2023-04-12T11:53:57.503Z,10.07
2023-04-12T11:56:25.712Z,6.57
2023-04-12T11:58:53.002Z,7.75
2023-04-12T12:01:22.033Z,13.18
2023-04-12T12:03:50.767Z,12.57
2023-04-12T12:06:19.325Z,6.75
2023-04-12T12:08:47.227Z,8.35
2023-04-12T12:11:14.411Z,9.18
2023-04-12T12:13:52.832Z,15.00
2023-04-12T12:16:29.741Z,12.57
2023-04-12T12:18:58.160Z,21.48
2023-04-12T12:21:27.432Z,13.90
2023-04-12T12:23:57.149Z,15.05
2023-04-12T12:26:32.120Z,10.50
2023-04-12T12:29:00.553Z,13.57
2023-04-12T12:31:29.379Z,9.25
2023-04-12T12:33:59.259Z,8.75
2023-04-12T12:36:34.887Z,7.63
2023-04-12T12:39:11.517Z,9.95
2023-04-12T12:41:40.837Z,11.10
2023-04-12T12:44:08.774Z,9.27
2023-04-12T12:46:51.840Z,7.10
2023-04-12T12:49:21.380Z,6.38
2023-04-12T12:51:48.548Z,7.25
2023-04-12T12:54:28.338Z,12.05
2023-04-12T12:57:04.471Z,6.82
2023-04-12T12:59:31.505Z,10.32
2023-04-12T13:01:58.616Z,14.70
2023-04-12T13:04:25.685Z,7.30
2023-04-12T13:06:52.820Z,17.05
2023-04-12T13:09:19.769Z,4.05
2023-04-12T13:11:46.778Z,8.50
2023-04-12T13:14:13.745Z,5.07
2023-04-12T13:16:41.067Z,12.68
2023-04-12T13:19:08.026Z,5.82
2023-04-12T13:21:35.010Z,6.78
2023-04-12T13:24:01.918Z,6.93
2023-04-12T13:26:28.849Z,6.80
2023-04-12T13:28:55.985Z,4.30
2023-04-12T13:31:23.272Z,4.90
2023-04-12T13:33:50.354Z,3.53
2023-04-12T13:36:17.284Z,7.85
2023-04-12T13:38:44.197Z,5.68
2023-04-12T13:41:11.126Z,3.67
2023-04-12T13:43:38.115Z,8.45
2023-04-12T13:46:05.349Z,9.10
2023-04-12T13:48:32.289Z,6.05
2023-04-12T13:50:59.826Z,2.90
2023-04-12T13:53:27.228Z,3.67
2023-04-12T13:55:54.196Z,7.63
2023-04-12T13:58:21.119Z,5.68
2023-04-12T14:00:48.163Z,5.03
2023-04-12T14:03:15.152Z,5.93
2023-04-12T14:05:42.100Z,6.95
2023-04-12T14:08:09.073Z,3.78
2023-04-12T14:10:36.316Z,5.72
2023-04-12T14:13:03.666Z,6.75
2023-04-12T14:15:30.894Z,4.22
2023-04-12T14:17:57.975Z,5.47
2023-04-12T14:20:25.042Z,5.85
2023-04-12T14:22:51.984Z,7.22
2023-04-12T14:25:19.023Z,2.95
2023-04-12T14:27:45.926Z,3.45
2023-04-12T14:30:13.250Z,6.70
2023-04-12T14:32:41.241Z,2.80
2023-04-12T14:35:09.488Z,10.05
2023-04-12T14:37:36.491Z,7.50
2023-04-12T14:40:06.469Z,4.38
2023-04-12T14:42:33.358Z,5.30
2023-04-12T14:45:01.524Z,4.60
2023-04-12T14:47:28.462Z,2.90
2023-04-12T14:49:55.764Z,6.85
2023-04-12T14:52:22.638Z,4.45
2023-04-12T14:54:49.568Z,5.57
2023-04-12T14:57:17.575Z,4.25
2023-04-12T14:59:44.570Z,4.18
2023-04-12T15:02:11.734Z,2.38
2023-04-12T15:04:38.748Z,2.83
2023-04-12T15:07:05.801Z,4.78
2023-04-12T15:09:32.818Z,1.73
2023-04-12T15:12:02.617Z,6.30
2023-04-12T15:14:29.730Z,4.55
2023-04-12T15:16:57.093Z,5.35
2023-04-12T15:19:24.246Z,4.65
2023-04-12T15:21:52.625Z,2.40
2023-04-12T15:24:20.054Z,0.93
2023-04-12T15:26:48.638Z,3.90
2023-04-12T15:29:16.573Z,5.65
2023-04-12T15:31:44.231Z,7.70
2023-04-12T15:34:13.452Z,1.90
2023-04-12T15:39:11.182Z,3.78
2023-04-12T15:41:39.944Z,2.00
2023-04-12T15:44:08.871Z,2.65
2023-04-12T15:46:36.359Z,2.50
2023-04-12T15:49:03.908Z,1.27
2023-04-12T15:51:32.056Z,2.13
2023-04-12T15:53:59.556Z,1.75
2023-04-12T15:56:26.679Z,2.17
2023-04-12T15:58:58.137Z,0.63
2023-04-12T16:01:25.858Z,1.15
2023-04-12T16:03:53.189Z,1.00
2023-04-12T16:06:20.853Z,0.80
2023-04-12T16:08:51.777Z,1.80
2023-04-12T16:11:23.668Z,1.55
2023-04-12T16:13:53.925Z,2.65
2023-04-12T16:16:23.638Z,0.30
2023-04-12T16:18:51.622Z,0.57
2023-04-12T16:21:20.858Z,2.33
2023-04-12T16:23:50.286Z,0.85
2023-04-12T16:26:21.853Z,1.08
2023-04-12T16:28:55.661Z,1.15
2023-04-12T16:31:25.317Z,4.20
2023-04-12T16:33:52.857Z,2.80
2023-04-12T16:36:23.325Z,0.52
2023-04-12T16:38:59.257Z,0.98
2023-04-12T16:41:26.560Z,3.22
2023-04-12T16:43:55.101Z,0.65
2023-04-12T16:46:22.408Z,3.50
2023-04-12T16:48:49.638Z,3.25
2023-04-12T16:51:16.993Z,5.60
2023-04-12T16:53:44.132Z,1.13
2023-04-12T16:56:11.121Z,1.63
2023-04-12T16:58:38.234Z,1.73
2023-04-12T17:01:05.825Z,0.85
2023-04-12T17:03:32.916Z,2.53
2023-04-12T17:05:59.976Z,1.02
2023-04-12T17:08:26.950Z,0.93
2023-04-12T17:10:54.579Z,1.10
2023-04-12T17:13:21.530Z,3.47
2023-04-12T17:15:48.607Z,5.53
2023-04-12T17:18:15.742Z,0.73
2023-04-12T17:20:42.973Z,1.80
2023-04-12T17:23:10.317Z,0.57
2023-04-12T17:25:37.990Z,0.68
2023-04-12T17:28:05.341Z,1.55
2023-04-12T17:30:32.689Z,1.02
2023-04-12T17:33:01.825Z,3.25
2023-04-12T17:35:29.364Z,1.63
2023-04-12T17:37:56.498Z,1.88
2023-04-12T17:40:23.475Z,2.08
2023-04-12T17:42:50.472Z,1.33
2023-04-12T17:45:18.495Z,1.30
2023-04-12T17:47:45.801Z,2.35
2023-04-12T17:50:12.967Z,1.75
2023-04-12T17:52:40.010Z,1.65
2023-04-12T17:55:12.464Z,0.90
2023-04-12T17:57:39.587Z,0.52
2023-04-12T18:00:11.835Z,2.78
2023-04-12T18:02:43.841Z,3.10
2023-04-12T18:05:12.335Z,2.17
2023-04-12T18:07:40.288Z,1.40
2023-04-12T18:10:15.427Z,0.52
2023-04-12T18:12:45.087Z,3.83
2023-04-12T18:15:12.102Z,0.88
2023-04-12T18:17:39.790Z,1.65
2023-04-12T18:20:11.501Z,2.92
2023-04-12T18:22:39.252Z,2.25
2023-04-12T18:25:08.157Z,0.88
2023-04-12T18:27:35.220Z,4.18
2023-04-12T18:30:03.367Z,2.00
2023-04-12T18:32:30.743Z,6.68
2023-04-12T18:34:57.862Z,3.90
2023-04-12T18:37:24.764Z,1.02
2023-04-12T18:39:53.501Z,3.13
2023-04-12T18:42:20.589Z,2.63
2023-04-12T18:44:47.589Z,3.08
2023-04-12T18:47:14.515Z,1.92
2023-04-12T18:49:41.452Z,4.97
2023-04-12T18:52:08.469Z,3.30
2023-04-12T18:54:35.386Z,3.97
2023-04-12T18:57:03.509Z,3.30
2023-04-12T18:59:30.910Z,3.03
2023-04-12T19:01:58.088Z,2.03
2023-04-12T19:04:25.226Z,2.47
2023-04-12T19:06:53.172Z,2.28
2023-04-12T19:09:20.126Z,4.20
2023-04-12T19:11:47.124Z,10.18
2023-04-12T19:14:14.218Z,2.45
2023-04-12T19:16:41.339Z,1.45
2023-04-12T19:19:08.422Z,6.63
2023-04-12T19:21:35.459Z,4.90
2023-04-12T19:24:02.517Z,5.28
2023-04-12T19:26:30.240Z,7.28
2023-04-12T19:28:58.863Z,3.88
2023-04-12T19:31:26.546Z,4.57
2023-04-12T19:33:55.979Z,2.22
2023-04-12T19:36:26.088Z,3.47
2023-04-12T19:38:53.043Z,2.08
2023-04-12T19:41:20.808Z,2.65
2023-04-12T19:43:47.843Z,2.70
2023-04-12T19:46:15.364Z,2.20
2023-04-12T19:48:42.746Z,4.10
2023-04-12T19:51:09.857Z,3.90
2023-04-12T19:53:36.955Z,5.13
2023-04-12T19:56:04.279Z,2.70
2023-04-12T19:58:32.128Z,5.45
2023-04-12T20:01:02.770Z,3.38
2023-04-12T20:03:30.317Z,4.10
2023-04-12T20:06:03.663Z,4.53
2023-04-12T20:08:31.717Z,10.25
2023-04-12T20:10:58.985Z,6.03
2023-04-12T20:13:25.956Z,4.10
2023-04-12T20:15:54.397Z,5.20
2023-04-12T20:18:21.783Z,3.30
2023-04-12T20:20:49.580Z,3.05
2023-04-12T20:23:17.119Z,4.32
2023-04-12T20:25:48.786Z,5.07
2023-04-12T20:28:15.876Z,3.53
2023-04-12T20:30:43.077Z,4.40
2023-04-12T20:33:10.397Z,3.08
2023-04-12T20:35:37.566Z,2.58
2023-04-12T20:38:05.192Z,3.63
2023-04-12T20:40:32.150Z,3.42
2023-04-12T20:42:59.843Z,3.83
2023-04-12T20:45:27.240Z,4.95
2023-04-12T20:47:54.251Z,1.77
2023-04-12T20:50:22.958Z,6.32
2023-04-12T20:52:52.110Z,1.88
2023-04-12T20:55:19.772Z,3.17
2023-04-12T20:57:46.834Z,3.22
2023-04-12T21:00:18.918Z,6.88
2023-04-12T21:02:46.757Z,3.10
2023-04-12T21:05:17.375Z,2.78
2023-04-12T21:07:46.563Z,3.70
2023-04-12T21:10:14.724Z,7.28
2023-04-12T21:12:42.816Z,5.05
2023-04-12T21:15:11.968Z,4.38
2023-04-12T21:17:40.535Z,1.90
2023-04-12T21:20:11.480Z,4.60
2023-04-12T21:22:38.637Z,6.32
2023-04-12T21:25:07.525Z,2.40
2023-04-12T21:27:35.222Z,4.93
2023-04-12T21:30:03.059Z,3.83
2023-04-12T21:32:30.061Z,3.22
2023-04-12T21:34:58.449Z,2.78
2023-04-12T21:37:26.082Z,2.63
2023-04-12T21:39:53.710Z,1.80
2023-04-12T21:42:20.943Z,5.13
2023-04-12T21:44:47.918Z,2.72
2023-04-12T21:47:15.048Z,6.72
2023-04-12T21:49:41.940Z,1.52
2023-04-12T21:52:08.924Z,2.78
2023-04-12T21:54:37.068Z,5.40
2023-04-12T21:57:04.663Z,4.97
2023-04-12T21:59:31.689Z,5.95
2023-04-12T22:01:58.732Z,3.83
2023-04-12T22:04:25.688Z,2.47
2023-04-12T22:06:52.849Z,3.17
2023-04-12T22:09:20.319Z,3.58
2023-04-12T22:11:49.051Z,1.55
2023-04-12T22:14:16.000Z,4.43
2023-04-12T22:16:43.065Z,2.70
2023-04-12T22:19:10.087Z,2.97
2023-04-12T22:21:37.275Z,1.63
2023-04-12T22:24:04.273Z,3.65
2023-04-12T22:26:31.625Z,6.55
2023-04-12T22:28:58.645Z,0.98
2023-04-12T22:31:26.195Z,2.65
2023-04-12T22:33:54.828Z,3.25
2023-04-12T22:36:28.475Z,1.65
2023-04-12T22:38:56.383Z,1.60
2023-04-12T22:41:23.397Z,1.15
2023-04-12T22:43:50.421Z,3.00
2023-04-12T22:46:18.099Z,2.50
2023-04-12T22:48:48.386Z,3.05
2023-04-12T22:51:16.036Z,2.13
2023-04-12T22:53:45.783Z,1.75
2023-04-12T22:56:13.414Z,3.80
2023-04-12T22:58:40.595Z,4.45
2023-04-12T23:01:07.669Z,3.70
2023-04-12T23:03:35.008Z,1.70
2023-04-12T23:06:02.124Z,2.45
2023-04-12T23:08:29.293Z,1.38
2023-04-12T23:11:01.636Z,3.33
2023-04-12T23:13:35.724Z,1.27
2023-04-12T23:16:03.617Z,1.85
2023-04-12T23:18:31.280Z,4.07
2023-04-12T23:20:58.253Z,1.05
2023-04-12T23:23:25.200Z,7.90
2023-04-12T23:25:52.927Z,0.82
2023-04-12T23:28:21.748Z,4.63
2023-04-12T23:30:51.015Z,1.63
2023-04-12T23:33:21.469Z,4.53
2023-04-12T23:35:52.713Z,2.03
2023-04-12T23:38:34.942Z,2.85
2023-04-12T23:41:04.030Z,2.25
2023-04-12T23:43:32.653Z,1.02
2023-04-12T23:46:00.278Z,2.42
2023-04-12T23:48:28.016Z,1.42
2023-04-12T23:50:55.066Z,5.30
2023-04-12T23:53:22.161Z,0.73
2023-04-12T23:55:53.643Z,1.35
2023-04-12T23:58:21.636Z,2.78
